createdAt,value
2019-04-27T00:00:10.700Z,13.50
2019-04-27T00:02:57.442Z,13.50
2019-04-27T00:05:36.564Z,13.50
2019-04-27T00:08:35.189Z,13.40
2019-04-27T00:11:19.952Z,13.40
2019-04-27T00:13:48.448Z,13.40
2019-04-27T00:16:34.737Z,13.30
2019-04-27T00:19:10.621Z,13.30
2019-04-27T00:21:46.617Z,13.30
2019-04-27T00:24:16.897Z,13.30
2019-04-27T00:26:45.509Z,13.30
2019-04-27T00:29:14.325Z,13.30
2019-04-27T00:31:43.531Z,13.30
2019-04-27T00:34:13.717Z,13.30
2019-04-27T00:36:55.778Z,13.30
2019-04-27T00:39:37.575Z,13.30
2019-04-27T00:42:06.007Z,13.20
2019-04-27T00:44:34.447Z,13.10
2019-04-27T00:47:04.505Z,13.10
2019-04-27T00:49:32.987Z,13.10
2019-04-27T00:52:03.632Z,13.10
2019-04-27T00:54:33.877Z,13.00
2019-04-27T00:57:20.489Z,13.00
2019-04-27T00:59:53.268Z,13.00
2019-04-27T01:02:23.322Z,13.00
2019-04-27T01:04:52.941Z,13.00
2019-04-27T01:07:22.754Z,13.00
2019-04-27T01:09:52.796Z,13.00
2019-04-27T01:12:33.532Z,13.00
2019-04-27T01:15:03.540Z,13.00
2019-04-27T01:17:32.234Z,13.00
2019-04-27T01:20:00.639Z,12.90
2019-04-27T01:22:29.163Z,12.90
2019-04-27T01:24:59.351Z,12.80
2019-04-27T01:27:29.355Z,12.80
2019-04-27T01:29:58.837Z,12.70
2019-04-27T01:32:29.181Z,12.70
2019-04-27T01:34:59.170Z,12.70
2019-04-27T01:37:28.559Z,12.70
2019-04-27T01:39:58.952Z,12.60
2019-04-27T01:42:27.396Z,12.60
2019-04-27T01:44:55.808Z,12.60
2019-04-27T01:47:24.556Z,12.60
2019-04-27T01:49:52.990Z,12.60
2019-04-27T01:52:21.413Z,12.60
2019-04-27T01:54:49.852Z,12.60
2019-04-27T01:57:38.671Z,12.60
2019-04-27T02:00:30.003Z,12.50
2019-04-27T02:03:00.053Z,12.50
2019-04-27T02:05:36.617Z,12.40
2019-04-27T02:08:05.097Z,12.30
2019-04-27T02:10:33.540Z,12.30
2019-04-27T02:13:01.965Z,12.30
2019-04-27T02:15:30.381Z,12.30
2019-04-27T02:17:59.734Z,12.30
2019-04-27T02:20:30.089Z,12.20
2019-04-27T02:22:58.824Z,12.20
2019-04-27T02:25:29.340Z,12.20
2019-04-27T02:27:59.359Z,12.10
2019-04-27T02:30:30.598Z,12.10
2019-04-27T02:33:06.827Z,12.10
2019-04-27T02:35:35.257Z,12.00
2019-04-27T02:38:03.746Z,12.00
2019-04-27T02:40:50.512Z,12.00
2019-04-27T02:43:33.686Z,12.00
2019-04-27T02:46:21.499Z,12.00
2019-04-27T02:48:58.927Z,11.90
2019-04-27T02:51:24.356Z,11.90
2019-04-27T02:53:53.440Z,11.90
2019-04-27T02:56:22.045Z,11.90
2019-04-27T02:59:12.075Z,11.90
2019-04-27T03:01:46.564Z,11.90
2019-04-27T03:04:12.036Z,11.90
2019-04-27T03:06:40.472Z,12.00
2019-04-27T03:09:10.390Z,12.00
2019-04-27T03:11:39.753Z,12.00
2019-04-27T03:14:32.441Z,12.00
2019-04-27T03:17:10.191Z,12.00
2019-04-27T03:19:40.269Z,12.00
2019-04-27T03:22:16.452Z,12.00
2019-04-27T03:25:00.038Z,12.00
2019-04-27T03:27:36.278Z,12.00
2019-04-27T03:30:06.964Z,12.00
2019-04-27T03:32:35.449Z,12.00
2019-04-27T03:35:07.381Z,12.00
2019-04-27T03:37:35.815Z,12.10
2019-04-27T03:40:23.651Z,12.00
2019-04-27T03:42:53.715Z,12.00
2019-04-27T03:45:41.548Z,12.00
2019-04-27T03:48:10.422Z,12.00
2019-04-27T03:50:43.653Z,12.00
2019-04-27T03:53:29.943Z,12.10
2019-04-27T03:56:00.181Z,12.10
2019-04-27T03:58:33.569Z,12.10
2019-04-27T04:01:02.291Z,12.10
2019-04-27T04:03:31.081Z,12.00
2019-04-27T04:06:00.341Z,12.00
2019-04-27T04:08:50.227Z,12.10
2019-04-27T04:11:30.384Z,12.10
2019-04-27T04:14:17.008Z,12.00
2019-04-27T04:16:53.264Z,12.00
2019-04-27T04:19:53.953Z,12.00
2019-04-27T04:22:11.177Z,12.00
2019-04-27T04:24:39.877Z,12.10
2019-04-27T04:27:09.929Z,12.00
2019-04-27T04:29:39.480Z,12.10
2019-04-27T04:32:10.443Z,12.10
2019-04-27T04:35:01.291Z,12.10
2019-04-27T04:37:29.673Z,12.20
2019-04-27T04:40:19.641Z,12.20
2019-04-27T04:42:51.116Z,12.20
2019-04-27T04:45:21.280Z,12.20
2019-04-27T04:47:59.470Z,12.20
2019-04-27T04:50:27.270Z,12.20
2019-04-27T04:52:55.753Z,12.20
2019-04-27T04:55:24.182Z,12.20
2019-04-27T04:57:52.673Z,12.20
2019-04-27T05:00:21.150Z,12.20
2019-04-27T05:02:49.561Z,12.20
2019-04-27T05:05:19.350Z,12.10
2019-04-27T05:07:48.583Z,12.20
2019-04-27T05:10:18.836Z,12.20
2019-04-27T05:12:48.613Z,12.20
2019-04-27T05:15:20.440Z,12.20
2019-04-27T05:17:48.403Z,12.20
2019-04-27T05:20:24.682Z,12.20
2019-04-27T05:22:49.772Z,12.20
2019-04-27T05:25:18.564Z,12.20
2019-04-27T05:27:47.197Z,12.20
2019-04-27T05:30:15.635Z,12.20
2019-04-27T05:32:44.061Z,12.20
2019-04-27T05:35:31.834Z,12.20
2019-04-27T05:38:00.916Z,12.20
2019-04-27T05:40:31.175Z,12.20
2019-04-27T05:43:13.753Z,12.20
2019-04-27T05:46:01.042Z,12.20
2019-04-27T05:48:30.714Z,12.20
2019-04-27T05:51:01.853Z,12.30
2019-04-27T05:53:29.545Z,12.30
2019-04-27T05:55:59.428Z,12.30
2019-04-27T05:58:28.926Z,12.40
2019-04-27T06:00:59.523Z,12.40
2019-04-27T06:03:47.158Z,12.50
2019-04-27T06:06:29.378Z,12.50
2019-04-27T06:08:59.323Z,12.50
2019-04-27T06:11:28.614Z,12.50
2019-04-27T06:13:59.199Z,12.60
2019-04-27T06:16:29.022Z,12.60
2019-04-27T06:18:59.321Z,12.60
2019-04-27T06:21:29.358Z,12.60
2019-04-27T06:23:58.874Z,12.70
2019-04-27T06:26:27.561Z,12.70
2019-04-27T06:28:55.982Z,12.80
2019-04-27T06:31:24.477Z,12.80
2019-04-27T06:33:52.903Z,12.80
2019-04-27T06:36:40.658Z,12.80
2019-04-27T06:39:09.760Z,12.80
2019-04-27T06:41:40.080Z,12.80
2019-04-27T06:44:11.012Z,12.80
2019-04-27T06:46:40.349Z,12.80
2019-04-27T06:49:10.764Z,12.80
2019-04-27T06:51:40.018Z,12.80
2019-04-27T06:54:28.815Z,12.90
2019-04-27T06:56:59.240Z,12.90
2019-04-27T06:59:28.895Z,12.80
2019-04-27T07:01:59.136Z,12.80
2019-04-27T07:04:29.391Z,12.80
2019-04-27T07:06:59.433Z,12.80
2019-04-27T07:09:29.481Z,12.70
2019-04-27T07:11:59.271Z,12.70
2019-04-27T07:14:29.421Z,12.70
2019-04-27T07:16:59.124Z,12.70
2019-04-27T07:19:29.422Z,12.80
2019-04-27T07:21:59.397Z,12.80
2019-04-27T07:24:29.242Z,12.80
2019-04-27T07:26:59.583Z,12.80
2019-04-27T07:29:29.237Z,12.90
2019-04-27T07:31:59.684Z,12.90
2019-04-27T07:34:28.628Z,12.90
2019-04-27T07:36:59.758Z,13.00
2019-04-27T07:39:29.333Z,13.00
2019-04-27T07:41:58.586Z,13.10
2019-04-27T07:44:39.097Z,13.20
2019-04-27T07:47:15.412Z,13.30
2019-04-27T07:49:44.663Z,13.40
2019-04-27T07:52:13.109Z,13.40
2019-04-27T07:54:41.599Z,13.30
2019-04-27T07:57:10.047Z,13.30
2019-04-27T07:59:41.668Z,13.20
2019-04-27T08:02:10.865Z,13.20
2019-04-27T08:04:40.046Z,13.20
2019-04-27T08:07:09.212Z,13.30
2019-04-27T08:09:39.629Z,13.30
2019-04-27T08:12:07.923Z,13.30
2019-04-27T08:14:36.371Z,13.30
2019-04-27T08:17:04.788Z,13.30
2019-04-27T08:19:33.231Z,13.20
2019-04-27T08:22:01.669Z,13.30
2019-04-27T08:24:30.157Z,13.30
2019-04-27T08:27:07.447Z,13.30
2019-04-27T08:30:13.095Z,13.40
2019-04-27T08:32:52.123Z,13.60
2019-04-27T08:35:20.555Z,13.70
2019-04-27T08:37:49.546Z,13.80
2019-04-27T08:40:19.306Z,13.90
2019-04-27T08:42:50.860Z,13.90
2019-04-27T08:45:19.309Z,14.00
2019-04-27T08:47:49.839Z,14.00
2019-04-27T08:50:19.061Z,14.00
2019-04-27T08:52:49.930Z,13.90
2019-04-27T08:55:19.645Z,13.80
2019-04-27T08:57:48.923Z,13.80
2019-04-27T09:00:19.305Z,13.80
2019-04-27T09:02:50.004Z,13.80
2019-04-27T09:05:21.119Z,13.80
2019-04-27T09:07:51.397Z,13.90
2019-04-27T09:10:25.060Z,14.10
2019-04-27T09:13:01.218Z,14.20
2019-04-27T09:15:34.054Z,14.50
2019-04-27T09:18:03.283Z,14.60
2019-04-27T09:20:41.836Z,14.70
2019-04-27T09:23:10.264Z,14.60
2019-04-27T09:25:39.631Z,14.60
2019-04-27T09:28:08.750Z,14.40
2019-04-27T09:30:39.142Z,14.40
2019-04-27T09:33:07.905Z,14.40
2019-04-27T09:35:36.349Z,14.50
2019-04-27T09:38:04.761Z,14.60
2019-04-27T09:40:33.725Z,14.70
2019-04-27T09:43:02.177Z,14.80
2019-04-27T09:45:30.597Z,14.80
2019-04-27T09:47:59.018Z,14.80
2019-04-27T09:50:28.280Z,14.70
2019-04-27T09:52:56.927Z,14.50
2019-04-27T09:55:26.374Z,14.50
2019-04-27T09:57:56.777Z,14.50
2019-04-27T10:00:45.767Z,14.60
2019-04-27T10:03:14.398Z,14.70
2019-04-27T10:05:42.821Z,14.90
2019-04-27T10:08:11.261Z,14.90
2019-04-27T10:10:39.665Z,15.00
2019-04-27T10:13:08.098Z,15.10
2019-04-27T10:15:36.651Z,15.20
2019-04-27T10:18:06.079Z,15.10
2019-04-27T10:20:40.387Z,15.20
2019-04-27T10:23:06.213Z,15.20
2019-04-27T10:25:37.446Z,15.20
2019-04-27T10:28:25.154Z,15.30
2019-04-27T10:30:55.624Z,15.30
2019-04-27T10:33:25.756Z,15.30
2019-04-27T10:35:56.269Z,15.40
2019-04-27T10:38:25.867Z,15.50
2019-04-27T10:40:54.566Z,15.70
2019-04-27T10:43:23.002Z,15.80
2019-04-27T10:45:51.526Z,15.90
2019-04-27T10:48:20.071Z,16.10
2019-04-27T10:50:48.506Z,16.10
2019-04-27T10:53:17.047Z,16.20
2019-04-27T10:55:46.454Z,16.20
2019-04-27T10:58:15.786Z,16.10
2019-04-27T11:00:58.414Z,16.20
2019-04-27T11:03:46.244Z,16.00
2019-04-27T11:06:28.579Z,15.90
2019-04-27T11:08:57.138Z,15.70
2019-04-27T11:11:25.917Z,15.70
2019-04-27T11:13:56.940Z,15.60
2019-04-27T11:16:26.135Z,15.40
2019-04-27T11:18:56.442Z,15.30
2019-04-27T11:21:30.739Z,15.30
2019-04-27T11:23:59.231Z,15.40
2019-04-27T11:26:27.788Z,15.80
2019-04-27T11:28:56.292Z,16.20
2019-04-27T11:31:26.096Z,16.40
2019-04-27T11:33:56.614Z,16.50
2019-04-27T11:36:27.025Z,16.70
2019-04-27T11:39:00.285Z,16.90
2019-04-27T11:41:28.768Z,17.10
2019-04-27T11:43:57.188Z,17.30
2019-04-27T11:46:26.721Z,17.20
2019-04-27T11:48:56.456Z,17.30
2019-04-27T11:51:26.641Z,17.60
2019-04-27T11:53:55.484Z,17.90
2019-04-27T11:56:24.012Z,18.10
2019-04-27T11:58:52.432Z,17.90
2019-04-27T12:01:20.856Z,17.70
2019-04-27T12:03:49.333Z,17.60
2019-04-27T12:06:17.825Z,17.50
2019-04-27T12:08:46.261Z,17.50
2019-04-27T12:11:15.996Z,17.40
2019-04-27T12:13:46.090Z,17.40
2019-04-27T12:16:15.616Z,17.50
2019-04-27T12:18:48.854Z,17.80
2019-04-27T12:21:15.167Z,18.10
2019-04-27T12:23:43.592Z,18.30
2019-04-27T12:26:13.672Z,18.30
2019-04-27T12:28:49.561Z,18.50
2019-04-27T12:31:22.695Z,18.70
2019-04-27T12:33:51.117Z,18.80
2019-04-27T12:36:19.553Z,18.80
2019-04-27T12:38:48.845Z,18.80
2019-04-27T12:41:17.262Z,18.80
2019-04-27T12:43:45.958Z,19.00
2019-04-27T12:46:16.024Z,19.00
2019-04-27T12:48:45.956Z,18.80
2019-04-27T12:51:15.265Z,18.50
2019-04-27T12:53:50.780Z,18.10
2019-04-27T12:56:33.134Z,17.80
2019-04-27T12:59:03.212Z,17.60
2019-04-27T13:01:31.645Z,17.40
2019-04-27T13:04:00.100Z,17.20
2019-04-27T13:06:28.580Z,17.00
2019-04-27T13:08:57.026Z,16.70
2019-04-27T13:11:26.705Z,16.50
2019-04-27T13:13:57.208Z,16.30
2019-04-27T13:16:27.219Z,16.10
2019-04-27T13:18:57.475Z,15.90
2019-04-27T13:21:26.303Z,15.60
2019-04-27T13:24:03.613Z,15.40
2019-04-27T13:26:25.290Z,15.10
2019-04-27T13:28:53.721Z,14.60
2019-04-27T13:31:22.155Z,14.30
2019-04-27T13:33:50.586Z,14.20
2019-04-27T13:36:19.102Z,14.30
2019-04-27T13:38:47.514Z,14.40
2019-04-27T13:41:26.244Z,14.60
2019-04-27T13:43:46.099Z,14.90
2019-04-27T13:46:16.197Z,15.90
2019-04-27T13:49:02.447Z,18.20
2019-04-27T13:51:44.702Z,20.50
2019-04-27T13:54:21.515Z,23.00
2019-04-27T13:56:43.284Z,24.30
2019-04-27T13:59:12.899Z,25.10
2019-04-27T14:01:41.927Z,24.90
2019-04-27T14:04:10.351Z,23.40
2019-04-27T14:06:41.787Z,21.70
2019-04-27T14:09:09.326Z,20.30
2019-04-27T14:11:39.359Z,19.30
2019-04-27T14:14:08.024Z,18.50
2019-04-27T14:16:36.437Z,17.80
2019-04-27T14:19:04.985Z,18.30
2019-04-27T14:21:33.523Z,20.80
2019-04-27T14:24:02.071Z,23.90
2019-04-27T14:26:30.555Z,25.70
2019-04-27T14:28:59.104Z,27.20
2019-04-27T14:31:29.179Z,28.80
2019-04-27T14:33:58.771Z,30.30
2019-04-27T14:36:29.144Z,31.70
2019-04-27T14:38:58.807Z,31.60
2019-04-27T14:41:28.214Z,31.30
2019-04-27T14:44:06.049Z,31.30
2019-04-27T14:46:28.307Z,31.00
2019-04-27T14:48:57.405Z,29.40
2019-04-27T14:51:25.895Z,27.00
2019-04-27T14:53:54.384Z,24.90
2019-04-27T14:56:24.855Z,23.30
2019-04-27T14:58:52.984Z,21.90
2019-04-27T15:01:21.403Z,20.90
2019-04-27T15:03:49.846Z,19.90
2019-04-27T15:06:19.803Z,19.30
2019-04-27T15:08:49.158Z,19.70
2019-04-27T15:11:19.361Z,20.70
2019-04-27T15:13:50.172Z,20.60
2019-04-27T15:16:18.306Z,20.00
2019-04-27T15:18:49.910Z,20.70
2019-04-27T15:21:20.270Z,21.50
2019-04-27T15:23:48.955Z,21.00
2019-04-27T15:26:21.859Z,20.00
2019-04-27T15:28:50.839Z,19.10
2019-04-27T15:31:27.071Z,18.50
2019-04-27T15:34:14.285Z,18.00
2019-04-27T15:36:58.782Z,17.60
2019-04-27T15:39:30.468Z,17.20
2019-04-27T15:42:08.196Z,17.10
2019-04-27T15:44:36.501Z,18.30
2019-04-27T15:47:08.583Z,20.90
2019-04-27T15:49:34.310Z,22.70
2019-04-27T15:52:04.602Z,24.50
2019-04-27T15:54:32.881Z,24.70
2019-04-27T15:57:01.318Z,24.50
2019-04-27T15:59:49.083Z,23.40
2019-04-27T16:02:18.557Z,22.10
2019-04-27T16:04:49.739Z,20.80
2019-04-27T16:07:19.760Z,19.70
2019-04-27T16:09:48.756Z,19.00
2019-04-27T16:12:18.126Z,18.30
2019-04-27T16:14:47.934Z,17.60
2019-04-27T16:17:18.047Z,17.20
2019-04-27T16:19:50.128Z,16.90
2019-04-27T16:22:18.449Z,17.00
2019-04-27T16:24:49.378Z,17.10
2019-04-27T16:27:18.041Z,17.00
2019-04-27T16:29:49.127Z,16.70
2019-04-27T16:32:17.981Z,16.30
2019-04-27T16:34:47.841Z,16.00
2019-04-27T16:37:22.279Z,15.70
2019-04-27T16:39:49.548Z,15.50
2019-04-27T16:42:18.619Z,15.30
2019-04-27T16:44:49.491Z,15.10
2019-04-27T16:47:24.190Z,15.00
2019-04-27T16:49:48.405Z,14.90
2019-04-27T16:52:19.266Z,14.70
2019-04-27T16:54:56.290Z,14.50
2019-04-27T16:57:19.739Z,14.40
2019-04-27T16:59:54.833Z,14.40
2019-04-27T17:02:24.030Z,14.30
2019-04-27T17:04:54.127Z,14.30
2019-04-27T17:07:18.973Z,14.20
2019-04-27T17:09:49.471Z,14.20
2019-04-27T17:12:18.469Z,14.10
2019-04-27T17:14:49.420Z,14.10
2019-04-27T17:17:42.691Z,14.10
2019-04-27T17:20:12.914Z,14.20
2019-04-27T17:22:39.912Z,14.20
2019-04-27T17:25:08.955Z,14.30
2019-04-27T17:27:39.088Z,14.40
2019-04-27T17:30:09.665Z,14.60
2019-04-27T17:32:42.728Z,15.00
2019-04-27T17:35:14.688Z,15.10
2019-04-27T17:37:41.381Z,15.00
2019-04-27T17:40:10.373Z,14.90
2019-04-27T17:42:38.980Z,14.80
2019-04-27T17:48:00.353Z,14.60
2019-04-27T17:50:28.038Z,14.40
2019-04-27T17:52:57.403Z,14.30
2019-04-27T17:55:27.924Z,14.20
2019-04-27T17:58:00.476Z,14.10
2019-04-27T18:00:28.109Z,14.00
2019-04-27T18:02:57.954Z,13.90
2019-04-27T18:05:28.399Z,13.70
2019-04-27T18:07:57.969Z,13.50
2019-04-27T18:10:35.849Z,13.30
2019-04-27T18:13:04.275Z,13.10
2019-04-27T18:15:32.708Z,13.10
2019-04-27T18:18:02.778Z,13.10
2019-04-27T18:20:31.206Z,13.00
2019-04-27T18:23:20.633Z,13.00
2019-04-27T18:25:50.689Z,13.00
2019-04-27T18:28:21.087Z,12.90
2019-04-27T18:30:51.158Z,12.80
2019-04-27T18:33:19.594Z,12.70
2019-04-27T18:35:49.100Z,12.70
2019-04-27T18:38:18.006Z,12.50
2019-04-27T18:40:46.458Z,12.50
2019-04-27T18:43:14.882Z,12.40
2019-04-27T18:45:45.015Z,12.40
2019-04-27T18:48:44.897Z,12.30
2019-04-27T18:51:30.595Z,12.20
2019-04-27T18:54:03.472Z,12.20
2019-04-27T18:56:33.448Z,12.00
2019-04-27T18:58:59.959Z,12.00
2019-04-27T19:01:28.910Z,12.00
2019-04-27T19:03:58.641Z,12.00
2019-04-27T19:06:28.893Z,11.90
2019-04-27T19:08:59.038Z,11.90
2019-04-27T19:11:29.062Z,12.00
2019-04-27T19:13:59.048Z,12.00
2019-04-27T19:16:29.206Z,12.00
2019-04-27T19:19:18.927Z,12.10
2019-04-27T19:21:48.610Z,12.10
2019-04-27T19:24:19.043Z,12.10
2019-04-27T19:26:49.047Z,12.10
2019-04-27T19:29:25.107Z,12.20
2019-04-27T19:31:58.655Z,12.20
2019-04-27T19:34:28.613Z,12.30
2019-04-27T19:36:58.974Z,12.40
2019-04-27T19:39:48.178Z,12.40
2019-04-27T19:42:19.927Z,12.50
2019-04-27T19:44:48.130Z,12.50
2019-04-27T19:47:16.692Z,12.60
2019-04-27T19:49:45.156Z,12.50
2019-04-27T19:52:13.575Z,12.40
2019-04-27T19:54:42.008Z,12.20
2019-04-27T19:57:10.465Z,12.10
2019-04-27T19:59:46.535Z,11.90
2019-04-27T20:02:16.583Z,11.80
2019-04-27T20:04:46.654Z,11.70
2019-04-27T20:07:15.095Z,11.70
2019-04-27T20:09:49.967Z,11.70
2019-04-27T20:12:18.287Z,11.80
2019-04-27T20:14:55.644Z,11.80
2019-04-27T20:17:27.664Z,11.80
2019-04-27T20:19:56.655Z,11.90
2019-04-27T20:22:25.446Z,11.90
2019-04-27T20:24:53.931Z,11.90
2019-04-27T20:27:22.436Z,11.90
2019-04-27T20:29:50.868Z,11.90
2019-04-27T20:32:21.363Z,11.90
2019-04-27T20:34:51.195Z,11.90
2019-04-27T20:37:21.019Z,11.90
2019-04-27T20:39:51.465Z,11.90
2019-04-27T20:42:21.155Z,11.90
2019-04-27T20:44:51.650Z,11.80
2019-04-27T20:47:20.479Z,11.90
2019-04-27T20:49:48.908Z,11.90
2019-04-27T20:52:20.829Z,11.80
2019-04-27T20:54:49.123Z,11.80
2019-04-27T20:57:17.554Z,11.80
2019-04-27T20:59:45.987Z,11.70
2019-04-27T21:02:34.316Z,11.70
2019-04-27T21:05:26.351Z,11.70
2019-04-27T21:08:02.205Z,11.80
2019-04-27T21:10:30.751Z,11.80
2019-04-27T21:13:01.031Z,11.80
2019-04-27T21:15:31.414Z,11.80
2019-04-27T21:18:01.142Z,11.70
2019-04-27T21:20:30.958Z,11.70
2019-04-27T21:23:01.710Z,11.70
2019-04-27T21:25:31.548Z,11.60
2019-04-27T21:28:12.811Z,11.60
2019-04-27T21:30:31.348Z,11.60
2019-04-27T21:33:01.088Z,11.60
2019-04-27T21:35:29.784Z,11.60
2019-04-27T21:37:58.203Z,11.60
2019-04-27T21:40:26.640Z,11.60
2019-04-27T21:42:55.060Z,11.50
2019-04-27T21:45:23.492Z,11.50
2019-04-27T21:47:52.050Z,11.50
2019-04-27T21:50:22.995Z,11.50
2019-04-27T21:52:52.536Z,11.50
2019-04-27T21:55:25.064Z,11.50
2019-04-27T21:57:53.481Z,11.60
2019-04-27T22:00:42.760Z,11.60
2019-04-27T22:03:11.988Z,11.50
2019-04-27T22:05:41.666Z,11.60
2019-04-27T22:08:11.665Z,11.50
2019-04-27T22:10:40.659Z,11.60
2019-04-27T22:13:09.098Z,11.60
2019-04-27T22:15:37.516Z,11.50
2019-04-27T22:18:06.864Z,11.60
2019-04-27T22:20:35.989Z,11.60
2019-04-27T22:23:12.425Z,11.60
2019-04-27T22:25:42.165Z,11.60
2019-04-27T22:28:11.754Z,11.60
2019-04-27T22:30:40.433Z,11.60
2019-04-27T22:33:08.850Z,11.50
2019-04-27T22:35:37.353Z,11.50
2019-04-27T22:38:05.786Z,11.50
2019-04-27T22:40:52.789Z,11.40
2019-04-27T22:43:25.817Z,11.40
2019-04-27T22:45:54.914Z,11.40
2019-04-27T22:48:23.338Z,11.30
2019-04-27T22:50:51.761Z,11.40
2019-04-27T22:53:20.484Z,11.30
2019-04-27T22:56:06.737Z,11.40
2019-04-27T22:58:36.826Z,11.40
2019-04-27T23:01:06.878Z,11.40
2019-04-27T23:03:36.942Z,11.40
2019-04-27T23:06:05.437Z,11.40
2019-04-27T23:08:34.022Z,11.40
2019-04-27T23:11:02.623Z,11.40
2019-04-27T23:13:31.173Z,11.40
2019-04-27T23:16:01.573Z,11.40
2019-04-27T23:18:31.173Z,11.40
2019-04-27T23:21:01.536Z,11.40
2019-04-27T23:23:31.029Z,11.30
2019-04-27T23:26:01.649Z,11.30
2019-04-27T23:28:31.273Z,11.30
2019-04-27T23:31:04.558Z,11.30
2019-04-27T23:33:33.066Z,11.20
2019-04-27T23:36:01.640Z,11.20
2019-04-27T23:38:30.955Z,11.20
2019-04-27T23:40:59.587Z,11.20
2019-04-27T23:43:28.014Z,11.10
2019-04-27T23:45:57.595Z,11.10
2019-04-27T23:48:26.027Z,11.10
2019-04-27T23:51:33.702Z,11.00
2019-04-27T23:54:02.135Z,10.90
2019-04-27T23:56:31.819Z,10.80
2019-04-27T23:59:00.622Z,10.90
